sensor_id;sensor_type;location;lat;lon;timestamp;pressure;altitude;pressure_sealevel;temperature;humidity
83095;BME280;72967;43.674;6.976;2024-02-14T00:00:03;97195.19;;;10.31;44.44
83095;BME280;72967;43.674;6.976;2024-02-14T00:02:28;97199.53;;;10.32;45.04
83095;BME280;72967;43.674;6.976;2024-02-14T00:04:54;97197.53;;;10.20;44.36
83095;BME280;72967;43.674;6.976;2024-02-14T00:07:20;97204.47;;;10.17;43.86
83095;BME280;72967;43.674;6.976;2024-02-14T00:09:46;97202.94;;;10.29;44.20
83095;BME280;72967;43.674;6.976;2024-02-14T00:12:11;97205.22;;;10.27;44.28
83095;BME280;72967;43.674;6.976;2024-02-14T00:14:37;97209.91;;;10.26;43.78
83095;BME280;72967;43.674;6.976;2024-02-14T00:17:03;97210.00;;;10.09;44.92
83095;BME280;72967;43.674;6.976;2024-02-14T00:19:30;97209.19;;;9.79;45.41
83095;BME280;72967;43.674;6.976;2024-02-14T00:21:56;97188.81;;;9.80;45.62
83095;BME280;72967;43.674;6.976;2024-02-14T00:24:21;97203.75;;;10.00;45.09
83095;BME280;72967;43.674;6.976;2024-02-14T00:26:47;97207.16;;;9.97;46.27
83095;BME280;72967;43.674;6.976;2024-02-14T00:29:14;97205.31;;;10.09;45.33
83095;BME280;72967;43.674;6.976;2024-02-14T00:31:39;97200.91;;;10.17;44.35
83095;BME280;72967;43.674;6.976;2024-02-14T00:34:05;97197.03;;;10.18;45.10
83095;BME280;72967;43.674;6.976;2024-02-14T00:36:30;97187.78;;;10.22;44.37
83095;BME280;72967;43.674;6.976;2024-02-14T00:38:55;97187.41;;;10.03;45.23
83095;BME280;72967;43.674;6.976;2024-02-14T00:41:21;97175.94;;;10.01;45.22
83095;BME280;72967;43.674;6.976;2024-02-14T00:43:46;97184.66;;;10.03;45.28
83095;BME280;72967;43.674;6.976;2024-02-14T00:46:16;97175.13;;;10.01;45.12
83095;BME280;72967;43.674;6.976;2024-02-14T00:48:42;97181.84;;;10.12;44.32
83095;BME280;72967;43.674;6.976;2024-02-14T00:51:07;97176.34;;;10.20;43.99
83095;BME280;72967;43.674;6.976;2024-02-14T00:53:33;97182.56;;;10.30;43.76
83095;BME280;72967;43.674;6.976;2024-02-14T00:55:58;97193.59;;;10.21;43.75
83095;BME280;72967;43.674;6.976;2024-02-14T00:58:23;97192.75;;;10.29;43.45
83095;BME280;72967;43.674;6.976;2024-02-14T01:00:49;97196.31;;;10.30;43.71
83095;BME280;72967;43.674;6.976;2024-02-14T01:03:14;97205.38;;;10.30;43.92
83095;BME280;72967;43.674;6.976;2024-02-14T01:05:41;97178.13;;;10.16;43.54
83095;BME280;72967;43.674;6.976;2024-02-14T01:08:07;97195.31;;;10.34;43.42
83095;BME280;72967;43.674;6.976;2024-02-14T01:10:33;97191.88;;;10.37;43.27
83095;BME280;72967;43.674;6.976;2024-02-14T01:12:58;97207.44;;;10.33;44.13
83095;BME280;72967;43.674;6.976;2024-02-14T01:15:24;97208.63;;;10.23;44.81
83095;BME280;72967;43.674;6.976;2024-02-14T01:17:49;97216.63;;;10.08;46.35
83095;BME280;72967;43.674;6.976;2024-02-14T01:20:15;97199.41;;;9.99;47.09
83095;BME280;72967;43.674;6.976;2024-02-14T01:22:40;97194.31;;;9.80;45.50
83095;BME280;72967;43.674;6.976;2024-02-14T01:25:06;97149.25;;;9.52;45.20
83095;BME280;72967;43.674;6.976;2024-02-14T01:27:32;97209.00;;;9.84;45.26
83095;BME280;72967;43.674;6.976;2024-02-14T01:29:57;97206.91;;;9.81;43.96
83095;BME280;72967;43.674;6.976;2024-02-14T01:32:23;97208.13;;;9.92;44.42
83095;BME280;72967;43.674;6.976;2024-02-14T01:34:49;97207.94;;;9.97;44.58
83095;BME280;72967;43.674;6.976;2024-02-14T01:37:14;97177.69;;;9.76;45.28
83095;BME280;72967;43.674;6.976;2024-02-14T01:39:40;97211.63;;;10.01;44.78
83095;BME280;72967;43.674;6.976;2024-02-14T01:42:05;97211.13;;;10.08;45.39
83095;BME280;72967;43.674;6.976;2024-02-14T01:44:32;97208.19;;;10.13;45.45
83095;BME280;72967;43.674;6.976;2024-02-14T01:46:58;97207.69;;;10.11;45.58
83095;BME280;72967;43.674;6.976;2024-02-14T01:49:24;97136.72;;;9.71;45.76
83095;BME280;72967;43.674;6.976;2024-02-14T01:51:52;97210.31;;;10.07;45.49
83095;BME280;72967;43.674;6.976;2024-02-14T01:54:18;97206.97;;;10.02;45.44
83095;BME280;72967;43.674;6.976;2024-02-14T01:56:44;97210.50;;;10.02;45.02
83095;BME280;72967;43.674;6.976;2024-02-14T01:59:10;97211.19;;;9.99;44.50
83095;BME280;72967;43.674;6.976;2024-02-14T02:01:36;97214.94;;;9.95;45.59
83095;BME280;72967;43.674;6.976;2024-02-14T02:04:02;97214.44;;;9.93;45.46
83095;BME280;72967;43.674;6.976;2024-02-14T02:06:27;97208.63;;;9.94;45.92
83095;BME280;72967;43.674;6.976;2024-02-14T02:08:53;97208.00;;;9.89;47.05
83095;BME280;72967;43.674;6.976;2024-02-14T02:11:19;97216.50;;;9.96;46.44
83095;BME280;72967;43.674;6.976;2024-02-14T02:13:45;97214.63;;;9.88;47.46
83095;BME280;72967;43.674;6.976;2024-02-14T02:16:10;97209.97;;;9.79;45.94
83095;BME280;72967;43.674;6.976;2024-02-14T02:18:37;97215.50;;;9.71;46.34
83095;BME280;72967;43.674;6.976;2024-02-14T02:21:03;97225.66;;;9.79;45.41
83095;BME280;72967;43.674;6.976;2024-02-14T02:23:35;97225.72;;;9.62;44.94
83095;BME280;72967;43.674;6.976;2024-02-14T02:26:01;97232.22;;;9.57;44.87
83095;BME280;72967;43.674;6.976;2024-02-14T02:28:27;97223.66;;;9.50;45.00
83095;BME280;72967;43.674;6.976;2024-02-14T02:30:52;97225.41;;;9.55;44.70
83095;BME280;72967;43.674;6.976;2024-02-14T02:33:21;97232.25;;;9.40;45.01
83095;BME280;72967;43.674;6.976;2024-02-14T02:35:47;97230.66;;;9.30;45.13
83095;BME280;72967;43.674;6.976;2024-02-14T02:38:15;97213.13;;;9.14;45.50
83095;BME280;72967;43.674;6.976;2024-02-14T02:40:41;97223.94;;;9.11;46.24
83095;BME280;72967;43.674;6.976;2024-02-14T02:43:06;97236.34;;;9.08;45.37
83095;BME280;72967;43.674;6.976;2024-02-14T02:45:32;97219.38;;;9.23;44.71
83095;BME280;72967;43.674;6.976;2024-02-14T02:47:57;97211.31;;;9.27;44.77
83095;BME280;72967;43.674;6.976;2024-02-14T02:50:23;97217.75;;;9.22;45.03
83095;BME280;72967;43.674;6.976;2024-02-14T02:52:48;97210.84;;;9.16;45.78
83095;BME280;72967;43.674;6.976;2024-02-14T02:55:14;97217.16;;;9.08;45.80
83095;BME280;72967;43.674;6.976;2024-02-14T02:57:43;97198.63;;;8.96;45.56
83095;BME280;72967;43.674;6.976;2024-02-14T03:00:10;97219.91;;;9.00;46.31
83095;BME280;72967;43.674;6.976;2024-02-14T03:02:39;97224.59;;;8.99;45.55
83095;BME280;72967;43.674;6.976;2024-02-14T03:05:07;97229.09;;;9.04;45.68
83095;BME280;72967;43.674;6.976;2024-02-14T03:07:33;97217.63;;;9.02;45.66
83095;BME280;72967;43.674;6.976;2024-02-14T03:09:59;97221.50;;;9.09;44.50
83095;BME280;72967;43.674;6.976;2024-02-14T03:12:24;97203.78;;;8.98;43.85
83095;BME280;72967;43.674;6.976;2024-02-14T03:14:53;97221.34;;;9.14;44.31
83095;BME280;72967;43.674;6.976;2024-02-14T03:17:18;97222.31;;;9.10;44.29
83095;BME280;72967;43.674;6.976;2024-02-14T03:19:44;97222.78;;;9.20;43.77
83095;BME280;72967;43.674;6.976;2024-02-14T03:22:09;97230.69;;;9.22;43.88
83095;BME280;72967;43.674;6.976;2024-02-14T03:24:35;97230.34;;;9.23;43.89
83095;BME280;72967;43.674;6.976;2024-02-14T03:27:03;97240.16;;;9.33;43.79
83095;BME280;72967;43.674;6.976;2024-02-14T03:29:32;97244.34;;;9.39;43.05
83095;BME280;72967;43.674;6.976;2024-02-14T03:31:58;97241.97;;;9.37;43.56
83095;BME280;72967;43.674;6.976;2024-02-14T03:34:24;97245.81;;;9.36;43.89
83095;BME280;72967;43.674;6.976;2024-02-14T03:36:55;97246.31;;;9.30;44.10
83095;BME280;72967;43.674;6.976;2024-02-14T03:39:20;97244.88;;;9.32;44.47
83095;BME280;72967;43.674;6.976;2024-02-14T03:41:47;97239.53;;;9.36;44.26
83095;BME280;72967;43.674;6.976;2024-02-14T03:44:13;97234.50;;;9.38;44.05
83095;BME280;72967;43.674;6.976;2024-02-14T03:46:38;97239.50;;;9.45;44.86
83095;BME280;72967;43.674;6.976;2024-02-14T03:49:03;97238.41;;;9.37;43.88
83095;BME280;72967;43.674;6.976;2024-02-14T03:51:29;97245.16;;;9.39;43.68
83095;BME280;72967;43.674;6.976;2024-02-14T03:53:55;97246.47;;;9.42;43.75
83095;BME280;72967;43.674;6.976;2024-02-14T03:56:20;97240.94;;;9.51;43.64
83095;BME280;72967;43.674;6.976;2024-02-14T03:58:45;97242.56;;;9.43;44.30
83095;BME280;72967;43.674;6.976;2024-02-14T04:01:12;97250.81;;;9.34;43.65
83095;BME280;72967;43.674;6.976;2024-02-14T04:03:38;97259.09;;;9.26;43.74
83095;BME280;72967;43.674;6.976;2024-02-14T04:06:03;97263.09;;;9.28;44.30
83095;BME280;72967;43.674;6.976;2024-02-14T04:08:29;97270.06;;;9.26;44.64
83095;BME280;72967;43.674;6.976;2024-02-14T04:10:55;97262.13;;;9.42;43.48
83095;BME280;72967;43.674;6.976;2024-02-14T04:13:22;97266.94;;;9.53;44.83
83095;BME280;72967;43.674;6.976;2024-02-14T04:15:47;97268.69;;;9.58;43.95
83095;BME280;72967;43.674;6.976;2024-02-14T04:18:13;97268.34;;;9.68;44.31
83095;BME280;72967;43.674;6.976;2024-02-14T04:20:40;97268.63;;;9.75;43.71
83095;BME280;72967;43.674;6.976;2024-02-14T04:23:06;97265.41;;;9.73;44.15
83095;BME280;72967;43.674;6.976;2024-02-14T04:25:33;97283.97;;;9.76;44.06
83095;BME280;72967;43.674;6.976;2024-02-14T04:27:59;97222.56;;;9.43;43.43
83095;BME280;72967;43.674;6.976;2024-02-14T04:30:25;97279.47;;;9.71;43.31
83095;BME280;72967;43.674;6.976;2024-02-14T04:32:50;97279.31;;;9.59;43.11
83095;BME280;72967;43.674;6.976;2024-02-14T04:35:19;97244.25;;;9.18;43.38
83095;BME280;72967;43.674;6.976;2024-02-14T04:37:45;97294.22;;;9.50;43.85
83095;BME280;72967;43.674;6.976;2024-02-14T04:40:12;97295.50;;;9.44;43.43
83095;BME280;72967;43.674;6.976;2024-02-14T04:42:37;97300.34;;;9.38;43.72
83095;BME280;72967;43.674;6.976;2024-02-14T04:45:04;97287.97;;;9.23;44.00
83095;BME280;72967;43.674;6.976;2024-02-14T04:47:29;97302.00;;;9.30;43.48
83095;BME280;72967;43.674;6.976;2024-02-14T04:49:55;97254.28;;;8.88;43.90
83095;BME280;72967;43.674;6.976;2024-02-14T04:52:20;97294.41;;;9.27;44.05
83095;BME280;72967;43.674;6.976;2024-02-14T04:54:46;97300.22;;;9.26;43.30
83095;BME280;72967;43.674;6.976;2024-02-14T04:57:11;97289.56;;;9.33;43.01
83095;BME280;72967;43.674;6.976;2024-02-14T04:59:37;97289.91;;;9.14;43.04
83095;BME280;72967;43.674;6.976;2024-02-14T05:02:03;97262.81;;;9.04;42.65
83095;BME280;72967;43.674;6.976;2024-02-14T05:04:28;97284.59;;;9.26;43.77
83095;BME280;72967;43.674;6.976;2024-02-14T05:06:55;97272.16;;;9.20;43.62
83095;BME280;72967;43.674;6.976;2024-02-14T05:09:20;97280.84;;;9.22;43.98
83095;BME280;72967;43.674;6.976;2024-02-14T05:11:46;97273.78;;;9.13;43.42
83095;BME280;72967;43.674;6.976;2024-02-14T05:14:11;97284.25;;;9.19;43.54
83095;BME280;72967;43.674;6.976;2024-02-14T05:16:36;97289.59;;;9.16;43.93
83095;BME280;72967;43.674;6.976;2024-02-14T05:19:02;97281.50;;;9.28;44.60
83095;BME280;72967;43.674;6.976;2024-02-14T05:21:27;97286.03;;;9.32;46.06
83095;BME280;72967;43.674;6.976;2024-02-14T05:23:53;97269.69;;;9.45;44.73
83095;BME280;72967;43.674;6.976;2024-02-14T05:26:18;97254.56;;;9.21;47.27
83095;BME280;72967;43.674;6.976;2024-02-14T05:28:44;97285.50;;;9.48;46.17
83095;BME280;72967;43.674;6.976;2024-02-14T05:31:09;97285.34;;;9.53;46.56
83095;BME280;72967;43.674;6.976;2024-02-14T05:33:34;97284.81;;;9.59;46.24
83095;BME280;72967;43.674;6.976;2024-02-14T05:36:01;97288.38;;;9.60;46.86
83095;BME280;72967;43.674;6.976;2024-02-14T05:38:27;97291.78;;;9.57;45.75
83095;BME280;72967;43.674;6.976;2024-02-14T05:40:52;97295.34;;;9.57;47.35
83095;BME280;72967;43.674;6.976;2024-02-14T05:43:17;97306.00;;;9.50;46.91
83095;BME280;72967;43.674;6.976;2024-02-14T05:45:43;97315.81;;;9.60;47.82
83095;BME280;72967;43.674;6.976;2024-02-14T05:48:09;97321.81;;;9.53;48.10
83095;BME280;72967;43.674;6.976;2024-02-14T05:50:34;97337.34;;;9.41;46.87
83095;BME280;72967;43.674;6.976;2024-02-14T05:53:00;97330.72;;;9.42;48.38
83095;BME280;72967;43.674;6.976;2024-02-14T05:55:26;97332.34;;;9.43;50.06
83095;BME280;72967;43.674;6.976;2024-02-14T05:57:52;97331.03;;;9.40;47.73
83095;BME280;72967;43.674;6.976;2024-02-14T06:00:19;97323.94;;;9.39;47.84
83095;BME280;72967;43.674;6.976;2024-02-14T06:02:46;97318.44;;;9.39;48.55
83095;BME280;72967;43.674;6.976;2024-02-14T06:05:13;97320.56;;;9.25;47.08
83095;BME280;72967;43.674;6.976;2024-02-14T06:07:38;97312.00;;;9.18;46.48
83095;BME280;72967;43.674;6.976;2024-02-14T06:10:04;97315.22;;;9.03;44.45
83095;BME280;72967;43.674;6.976;2024-02-14T06:12:31;97314.78;;;9.01;44.31
83095;BME280;72967;43.674;6.976;2024-02-14T06:14:57;97308.63;;;8.86;44.74
83095;BME280;72967;43.674;6.976;2024-02-14T06:17:22;97303.13;;;8.78;45.05
83095;BME280;72967;43.674;6.976;2024-02-14T06:19:48;97307.81;;;8.69;45.11
83095;BME280;72967;43.674;6.976;2024-02-14T06:22:13;97319.28;;;8.79;44.93
83095;BME280;72967;43.674;6.976;2024-02-14T06:24:39;97321.84;;;8.93;45.00
83095;BME280;72967;43.674;6.976;2024-02-14T06:27:04;97325.56;;;8.97;44.96
83095;BME280;72967;43.674;6.976;2024-02-14T06:29:30;97318.13;;;8.98;44.82
83095;BME280;72967;43.674;6.976;2024-02-14T06:31:55;97307.34;;;8.92;44.10
83095;BME280;72967;43.674;6.976;2024-02-14T06:34:20;97329.13;;;9.06;44.93
83095;BME280;72967;43.674;6.976;2024-02-14T06:36:47;97336.22;;;9.16;44.85
83095;BME280;72967;43.674;6.976;2024-02-14T06:39:12;97342.19;;;9.26;47.12
83095;BME280;72967;43.674;6.976;2024-02-14T06:41:38;97332.97;;;9.39;46.04
83095;BME280;72967;43.674;6.976;2024-02-14T06:44:04;97327.66;;;9.34;46.56
83095;BME280;72967;43.674;6.976;2024-02-14T06:46:30;97323.94;;;9.30;46.38
83095;BME280;72967;43.674;6.976;2024-02-14T06:48:55;97342.97;;;9.44;47.21
83095;BME280;72967;43.674;6.976;2024-02-14T06:51:22;97348.94;;;9.46;46.60
83095;BME280;72967;43.674;6.976;2024-02-14T06:53:49;97361.38;;;9.52;45.47
83095;BME280;72967;43.674;6.976;2024-02-14T06:56:14;97369.44;;;9.40;43.74
83095;BME280;72967;43.674;6.976;2024-02-14T06:58:40;97370.59;;;9.48;43.89
83095;BME280;72967;43.674;6.976;2024-02-14T07:01:05;97374.28;;;9.52;43.56
83095;BME280;72967;43.674;6.976;2024-02-14T07:03:30;97372.19;;;9.57;44.92
83095;BME280;72967;43.674;6.976;2024-02-14T07:05:56;97379.13;;;9.55;44.78
83095;BME280;72967;43.674;6.976;2024-02-14T07:08:22;97377.03;;;9.52;44.13
83095;BME280;72967;43.674;6.976;2024-02-14T07:10:48;97372.03;;;9.45;43.24
83095;BME280;72967;43.674;6.976;2024-02-14T07:13:14;97368.31;;;9.50;43.56
83095;BME280;72967;43.674;6.976;2024-02-14T07:15:39;97384.44;;;9.60;43.71
83095;BME280;72967;43.674;6.976;2024-02-14T07:18:05;97387.50;;;9.67;45.25
83095;BME280;72967;43.674;6.976;2024-02-14T07:20:30;97388.81;;;9.61;44.46
83095;BME280;72967;43.674;6.976;2024-02-14T07:22:56;97391.53;;;9.69;48.08
83095;BME280;72967;43.674;6.976;2024-02-14T07:25:22;97393.78;;;9.76;51.33
83095;BME280;72967;43.674;6.976;2024-02-14T07:27:48;97400.41;;;9.84;50.83
83095;BME280;72967;43.674;6.976;2024-02-14T07:30:15;97402.63;;;9.90;55.21
83095;BME280;72967;43.674;6.976;2024-02-14T07:32:42;97408.94;;;9.99;58.88
83095;BME280;72967;43.674;6.976;2024-02-14T07:35:08;97418.59;;;10.14;55.80
83095;BME280;72967;43.674;6.976;2024-02-14T07:37:34;97425.88;;;10.10;57.08
83095;BME280;72967;43.674;6.976;2024-02-14T07:39:59;97414.72;;;10.15;57.94
83095;BME280;72967;43.674;6.976;2024-02-14T07:42:24;97412.97;;;10.19;56.55
83095;BME280;72967;43.674;6.976;2024-02-14T07:44:50;97413.88;;;10.32;56.05
83095;BME280;72967;43.674;6.976;2024-02-14T07:47:15;97417.06;;;10.42;54.50
83095;BME280;72967;43.674;6.976;2024-02-14T07:49:41;97397.38;;;10.40;53.21
83095;BME280;72967;43.674;6.976;2024-02-14T07:52:06;97425.38;;;10.63;51.89
83095;BME280;72967;43.674;6.976;2024-02-14T07:54:32;97396.84;;;10.47;50.93
83095;BME280;72967;43.674;6.976;2024-02-14T07:56:57;97435.00;;;10.78;49.90
83095;BME280;72967;43.674;6.976;2024-02-14T07:59:23;97442.13;;;10.87;51.28
83095;BME280;72967;43.674;6.976;2024-02-14T08:01:48;97447.44;;;10.92;49.98
83095;BME280;72967;43.674;6.976;2024-02-14T08:04:13;97449.69;;;10.90;49.96
83095;BME280;72967;43.674;6.976;2024-02-14T08:06:39;97456.91;;;11.03;50.60
83095;BME280;72967;43.674;6.976;2024-02-14T08:09:04;97463.34;;;11.07;50.41
83095;BME280;72967;43.674;6.976;2024-02-14T08:11:34;97453.97;;;11.08;50.40
83095;BME280;72967;43.674;6.976;2024-02-14T08:14:00;97456.13;;;10.94;50.42
83095;BME280;72967;43.674;6.976;2024-02-14T08:16:26;97454.75;;;11.09;50.80
83095;BME280;72967;43.674;6.976;2024-02-14T08:18:51;97464.09;;;11.17;50.90
83095;BME280;72967;43.674;6.976;2024-02-14T08:21:23;97466.00;;;11.25;52.52
83095;BME280;72967;43.674;6.976;2024-02-14T08:23:49;97465.03;;;11.29;49.93
83095;BME280;72967;43.674;6.976;2024-02-14T08:26:16;97460.09;;;11.35;48.78
83095;BME280;72967;43.674;6.976;2024-02-14T08:28:41;97458.44;;;11.42;48.57
83095;BME280;72967;43.674;6.976;2024-02-14T08:31:13;97459.44;;;11.38;48.48
83095;BME280;72967;43.674;6.976;2024-02-14T08:33:38;97457.16;;;11.40;49.30
83095;BME280;72967;43.674;6.976;2024-02-14T08:36:07;97459.38;;;11.46;49.86
83095;BME280;72967;43.674;6.976;2024-02-14T08:38:35;97453.41;;;11.44;49.72
83095;BME280;72967;43.674;6.976;2024-02-14T08:41:02;97446.09;;;11.48;51.05
83095;BME280;72967;43.674;6.976;2024-02-14T08:43:28;97453.00;;;11.55;51.76
83095;BME280;72967;43.674;6.976;2024-02-14T08:45:56;97453.13;;;11.58;52.89
83095;BME280;72967;43.674;6.976;2024-02-14T08:48:22;97444.47;;;11.47;53.45
83095;BME280;72967;43.674;6.976;2024-02-14T08:50:48;97450.72;;;11.57;53.81
83095;BME280;72967;43.674;6.976;2024-02-14T08:53:14;97457.56;;;11.71;54.04
83095;BME280;72967;43.674;6.976;2024-02-14T08:55:40;97457.06;;;11.78;53.69
83095;BME280;72967;43.674;6.976;2024-02-14T08:58:05;97462.63;;;11.90;53.47
83095;BME280;72967;43.674;6.976;2024-02-14T09:00:31;97469.28;;;11.89;53.38
83095;BME280;72967;43.674;6.976;2024-02-14T09:02:57;97455.09;;;11.99;52.54
83095;BME280;72967;43.674;6.976;2024-02-14T09:05:25;97474.16;;;12.04;51.67
83095;BME280;72967;43.674;6.976;2024-02-14T09:07:51;97478.22;;;12.19;52.17
83095;BME280;72967;43.674;6.976;2024-02-14T09:10:16;97475.03;;;12.17;54.93
83095;BME280;72967;43.674;6.976;2024-02-14T09:12:42;97479.06;;;11.99;55.89
83095;BME280;72967;43.674;6.976;2024-02-14T09:15:08;97482.91;;;12.06;58.05
83095;BME280;72967;43.674;6.976;2024-02-14T09:17:33;97481.38;;;12.29;59.28
83095;BME280;72967;43.674;6.976;2024-02-14T09:19:59;97482.78;;;12.35;59.83
83095;BME280;72967;43.674;6.976;2024-02-14T09:22:25;97489.19;;;12.27;60.66
83095;BME280;72967;43.674;6.976;2024-02-14T09:24:50;97482.28;;;12.21;59.47
83095;BME280;72967;43.674;6.976;2024-02-14T09:27:16;97496.78;;;12.30;60.54
83095;BME280;72967;43.674;6.976;2024-02-14T09:29:42;97493.41;;;12.25;58.98
83095;BME280;72967;43.674;6.976;2024-02-14T09:32:07;97478.75;;;12.33;59.97
83095;BME280;72967;43.674;6.976;2024-02-14T09:34:34;97495.91;;;12.51;58.91
83095;BME280;72967;43.674;6.976;2024-02-14T09:36:59;97492.44;;;12.42;59.71
83095;BME280;72967;43.674;6.976;2024-02-14T09:39:25;97452.38;;;12.11;58.59
83095;BME280;72967;43.674;6.976;2024-02-14T09:41:54;97498.63;;;12.39;60.12
83095;BME280;72967;43.674;6.976;2024-02-14T09:44:27;97503.72;;;12.49;60.04
83095;BME280;72967;43.674;6.976;2024-02-14T09:46:54;97496.69;;;12.39;57.33
83095;BME280;72967;43.674;6.976;2024-02-14T09:49:21;97444.81;;;12.20;57.21
83095;BME280;72967;43.674;6.976;2024-02-14T09:51:48;97508.13;;;12.62;59.49
83095;BME280;72967;43.674;6.976;2024-02-14T09:54:15;97507.91;;;12.67;58.57
83095;BME280;72967;43.674;6.976;2024-02-14T09:56:41;97501.94;;;12.77;57.72
83095;BME280;72967;43.674;6.976;2024-02-14T09:59:06;97501.50;;;12.87;58.15
83095;BME280;72967;43.674;6.976;2024-02-14T10:01:32;97499.75;;;12.70;56.32
83095;BME280;72967;43.674;6.976;2024-02-14T10:03:57;97482.38;;;12.70;56.98
83095;BME280;72967;43.674;6.976;2024-02-14T10:06:23;97488.72;;;12.83;57.00
83095;BME280;72967;43.674;6.976;2024-02-14T10:08:51;97471.47;;;12.86;57.08
83095;BME280;72967;43.674;6.976;2024-02-14T10:11:20;97487.81;;;12.91;56.73
83095;BME280;72967;43.674;6.976;2024-02-14T10:13:49;97493.44;;;12.82;55.48
83095;BME280;72967;43.674;6.976;2024-02-14T10:16:16;97489.06;;;12.81;55.59
83095;BME280;72967;43.674;6.976;2024-02-14T10:18:44;97483.56;;;12.93;55.40
83095;BME280;72967;43.674;6.976;2024-02-14T10:21:14;97481.28;;;12.95;55.02
83095;BME280;72967;43.674;6.976;2024-02-14T10:23:42;97489.75;;;12.90;54.24
83095;BME280;72967;43.674;6.976;2024-02-14T10:26:08;97498.50;;;12.92;53.97
83095;BME280;72967;43.674;6.976;2024-02-14T10:28:33;97490.69;;;13.06;55.84
83095;BME280;72967;43.674;6.976;2024-02-14T10:30:59;97481.06;;;13.00;56.92
83095;BME280;72967;43.674;6.976;2024-02-14T10:33:30;97489.56;;;13.07;57.14
83095;BME280;72967;43.674;6.976;2024-02-14T10:35:57;97485.31;;;13.22;55.67
83095;BME280;72967;43.674;6.976;2024-02-14T10:38:22;97451.59;;;12.92;52.85
83095;BME280;72967;43.674;6.976;2024-02-14T10:40:48;97467.47;;;13.07;52.72
83095;BME280;72967;43.674;6.976;2024-02-14T10:43:14;97496.34;;;13.10;53.54
83095;BME280;72967;43.674;6.976;2024-02-14T10:45:39;97490.97;;;13.26;54.03
83095;BME280;72967;43.674;6.976;2024-02-14T10:48:07;97494.97;;;13.16;52.65
83095;BME280;72967;43.674;6.976;2024-02-14T10:50:36;97500.19;;;13.30;53.79
83095;BME280;72967;43.674;6.976;2024-02-14T10:53:06;97503.59;;;13.27;53.88
83095;BME280;72967;43.674;6.976;2024-02-14T10:55:36;97495.44;;;13.18;53.81
83095;BME280;72967;43.674;6.976;2024-02-14T10:58:02;97507.06;;;13.24;55.04
83095;BME280;72967;43.674;6.976;2024-02-14T11:00:28;97509.03;;;13.35;54.32
83095;BME280;72967;43.674;6.976;2024-02-14T11:02:55;97498.31;;;13.34;52.73
83095;BME280;72967;43.674;6.976;2024-02-14T11:05:21;97508.31;;;13.50;51.84
83095;BME280;72967;43.674;6.976;2024-02-14T11:07:50;97513.63;;;13.55;55.62
83095;BME280;72967;43.674;6.976;2024-02-14T11:10:19;97451.28;;;13.30;56.36
83095;BME280;72967;43.674;6.976;2024-02-14T11:12:46;97502.63;;;13.83;55.83
83095;BME280;72967;43.674;6.976;2024-02-14T11:15:17;97498.44;;;13.89;55.03
83095;BME280;72967;43.674;6.976;2024-02-14T11:17:44;97495.13;;;13.84;54.12
83095;BME280;72967;43.674;6.976;2024-02-14T11:20:18;97470.31;;;13.59;53.17
83095;BME280;72967;43.674;6.976;2024-02-14T11:22:54;97505.19;;;13.76;52.44
83095;BME280;72967;43.674;6.976;2024-02-14T11:25:28;97485.03;;;13.63;51.78
83095;BME280;72967;43.674;6.976;2024-02-14T11:27:55;97465.03;;;13.67;51.13
83095;BME280;72967;43.674;6.976;2024-02-14T11:30:31;97502.66;;;13.71;53.63
83095;BME280;72967;43.674;6.976;2024-02-14T11:33:13;97492.59;;;13.91;56.76
83095;BME280;72967;43.674;6.976;2024-02-14T11:35:42;97473.56;;;13.89;57.92
83095;BME280;72967;43.674;6.976;2024-02-14T11:38:08;97501.84;;;14.11;59.73
83095;BME280;72967;43.674;6.976;2024-02-14T11:40:35;97500.78;;;14.15;59.42
83095;BME280;72967;43.674;6.976;2024-02-14T11:43:00;97488.97;;;14.02;60.11
83095;BME280;72967;43.674;6.976;2024-02-14T11:45:27;97494.34;;;14.11;60.06
83095;BME280;72967;43.674;6.976;2024-02-14T11:47:53;97491.34;;;14.16;59.97
83095;BME280;72967;43.674;6.976;2024-02-14T11:50:18;97484.66;;;14.17;60.79
83095;BME280;72967;43.674;6.976;2024-02-14T11:52:44;97489.22;;;14.25;60.34
83095;BME280;72967;43.674;6.976;2024-02-14T11:55:10;97486.16;;;14.15;60.32
83095;BME280;72967;43.674;6.976;2024-02-14T11:57:35;97478.31;;;14.17;60.47
83095;BME280;72967;43.674;6.976;2024-02-14T12:00:01;97474.25;;;13.98;60.43
83095;BME280;72967;43.674;6.976;2024-02-14T12:02:27;97476.34;;;14.17;60.21
83095;BME280;72967;43.674;6.976;2024-02-14T12:04:57;97482.47;;;14.11;60.02
83095;BME280;72967;43.674;6.976;2024-02-14T12:07:24;97486.56;;;14.29;59.64
83095;BME280;72967;43.674;6.976;2024-02-14T12:09:50;97476.88;;;14.35;59.82
83095;BME280;72967;43.674;6.976;2024-02-14T12:12:16;97482.69;;;14.45;59.64
83095;BME280;72967;43.674;6.976;2024-02-14T12:14:44;97479.03;;;14.41;60.94
83095;BME280;72967;43.674;6.976;2024-02-14T12:17:16;97474.44;;;14.33;60.27
83095;BME280;72967;43.674;6.976;2024-02-14T12:19:44;97484.78;;;14.49;61.13
83095;BME280;72967;43.674;6.976;2024-02-14T12:22:10;97484.72;;;14.61;60.09
83095;BME280;72967;43.674;6.976;2024-02-14T12:24:44;97480.88;;;14.65;59.00
83095;BME280;72967;43.674;6.976;2024-02-14T12:27:09;97483.78;;;14.57;58.14
83095;BME280;72967;43.674;6.976;2024-02-14T12:29:35;97481.94;;;14.61;57.77
83095;BME280;72967;43.674;6.976;2024-02-14T12:32:06;97479.44;;;14.56;58.12
83095;BME280;72967;43.674;6.976;2024-02-14T12:34:32;97478.53;;;14.67;57.71
83095;BME280;72967;43.674;6.976;2024-02-14T12:36:58;97477.03;;;14.70;59.35
83095;BME280;72967;43.674;6.976;2024-02-14T12:39:27;97460.69;;;14.65;59.12
83095;BME280;72967;43.674;6.976;2024-02-14T12:41:54;97471.63;;;14.45;60.27
83095;BME280;72967;43.674;6.976;2024-02-14T12:44:20;97468.34;;;14.28;60.36
83095;BME280;72967;43.674;6.976;2024-02-14T12:46:45;97460.38;;;14.38;60.11
83095;BME280;72967;43.674;6.976;2024-02-14T12:49:11;97455.78;;;14.58;60.30
83095;BME280;72967;43.674;6.976;2024-02-14T12:51:36;97453.19;;;14.65;59.52
83095;BME280;72967;43.674;6.976;2024-02-14T12:54:03;97441.94;;;14.58;60.51
83095;BME280;72967;43.674;6.976;2024-02-14T12:56:29;97449.63;;;14.65;60.18
83095;BME280;72967;43.674;6.976;2024-02-14T12:58:55;97451.31;;;14.69;59.96